Time;durP1;ratioP1;P1;durP2;ratioP2;P2;SDS_P1;SDS_P2;PMS_P1;PMS_P2;Temp;Humidity;BMP_temperature;BMP_pressure;BME280_temperature;BME280_humidity;BME280_pressure;Samples;Min_cycle;Max_cycle;Signal;HPM_P1;HPM_P2
2022/05/14 00:01:27;;;;;;;8.88;2.95;;;;;;;;;;5006266;28;20060;-88
2022/05/14 00:03:54;;;;;;;9.63;2.90;;;;;;;;;;5006671;28;20382;-87
2022/05/14 00:06:25;;;;;;;7.30;2.78;;;;;;;;;;5005520;28;20054;-87
2022/05/14 00:08:53;;;;;;;12.43;2.92;;;;;;;;;;5007043;28;20062;-87
2022/05/14 00:14:09;;;;;;;12.20;3.00;;;;;;;;;;5005872;28;20525;-88
2022/05/14 00:16:37;;;;;;;9.43;2.83;;;;;;;;;;5006426;28;20050;-88
2022/05/14 00:19:08;;;;;;;12.32;2.88;;;;;;;;;;5005992;28;20137;-87
2022/05/14 00:21:37;;;;;;;12.30;2.75;;;;;;;;;;5006211;28;20558;-88
2022/05/14 00:24:06;;;;;;;9.10;3.00;;;;;;;;;;5006255;28;20574;-88
2022/05/14 00:26:35;;;;;;;8.52;2.92;;;;;;;;;;5005854;28;20458;-88
2022/05/14 00:29:03;;;;;;;6.88;2.92;;;;;;;;;;5005822;28;20104;-87
2022/05/14 00:31:32;;;;;;;13.15;3.05;;;;;;;;;;5004975;28;20132;-88
2022/05/14 00:34:00;;;;;;;11.82;3.03;;;;;;;;;;4993918;28;20058;-92
2022/05/14 00:36:28;;;;;;;7.57;3.05;;;;;;;;;;5009697;28;20075;-92
2022/05/14 00:38:56;;;;;;;9.70;3.08;;;;;;;;;;5011743;28;20500;-92
2022/05/14 00:41:24;;;;;;;9.00;3.35;;;;;;;;;;4994379;28;20053;-92
2022/05/14 00:43:54;;;;;;;10.85;3.35;;;;;;;;;;5012055;28;20066;-93
2022/05/14 00:46:32;;;;;;;7.47;2.63;;;;;;;;;;5010411;28;20064;-92
2022/05/14 00:49:00;;;;;;;10.63;3.47;;;;;;;;;;5008828;28;20057;-92
2022/05/14 00:51:35;;;;;;;9.20;3.22;;;;;;;;;;5009365;28;20116;-93
2022/05/14 00:54:07;;;;;;;8.25;2.80;;;;;;;;;;5009817;28;20511;-92
2022/05/14 00:56:38;;;;;;;13.15;3.83;;;;;;;;;;5007187;28;20145;-92
2022/05/14 00:59:15;;;;;;;8.15;3.28;;;;;;;;;;4996631;28;20068;-92
2022/05/14 01:01:45;;;;;;;17.88;3.65;;;;;;;;;;5012563;28;20057;-92
2022/05/14 01:04:15;;;;;;;11.25;4.22;;;;;;;;;;5013229;28;20048;-93
2022/05/14 01:06:49;;;;;;;11.30;3.53;;;;;;;;;;4994867;28;20050;-93
2022/05/14 01:09:16;;;;;;;10.40;3.22;;;;;;;;;;5011138;28;20403;-92
2022/05/14 01:11:44;;;;;;;9.27;3.05;;;;;;;;;;5005712;28;20046;-92
2022/05/14 01:14:12;;;;;;;14.52;4.05;;;;;;;;;;5007496;28;20578;-92
2022/05/14 01:16:40;;;;;;;10.02;3.30;;;;;;;;;;4995527;28;20061;-93
2022/05/14 01:19:10;;;;;;;9.07;3.15;;;;;;;;;;4994358;28;20112;-93
2022/05/14 01:22:03;;;;;;;11.65;3.47;;;;;;;;;;4993139;28;20049;-93
2022/05/14 01:27:42;;;;;;;10.85;3.28;;;;;;;;;;4993035;28;20050;-92
2022/05/14 01:30:11;;;;;;;12.50;3.58;;;;;;;;;;4992431;28;20486;-92
2022/05/14 01:32:38;;;;;;;12.38;3.40;;;;;;;;;;4989485;28;20054;-94
2022/05/14 01:35:07;;;;;;;9.52;3.22;;;;;;;;;;5010441;28;20053;-94
2022/05/14 01:37:36;;;;;;;11.75;3.28;;;;;;;;;;4993782;28;20120;-95
2022/05/14 01:40:04;;;;;;;11.38;3.63;;;;;;;;;;4995512;28;20042;-94
2022/05/14 01:42:32;;;;;;;7.38;3.42;;;;;;;;;;5016268;28;20049;-94
2022/05/14 01:45:00;;;;;;;12.48;3.70;;;;;;;;;;5017604;28;20310;-94
2022/05/14 01:47:28;;;;;;;12.90;3.70;;;;;;;;;;4979743;28;20046;-94
2022/05/14 01:49:56;;;;;;;12.00;2.60;;;;;;;;;;5006664;28;20104;-86
2022/05/14 01:52:24;;;;;;;8.50;3.35;;;;;;;;;;4995224;28;20096;-87
2022/05/14 01:54:52;;;;;;;16.92;3.65;;;;;;;;;;4995350;28;20135;-94
2022/05/14 01:57:20;;;;;;;8.40;3.25;;;;;;;;;;5011183;28;20145;-94
2022/05/14 01:59:49;;;;;;;10.15;3.70;;;;;;;;;;5008749;28;20050;-93
2022/05/14 02:02:20;;;;;;;9.90;3.33;;;;;;;;;;5010743;28;20065;-94
2022/05/14 02:04:48;;;;;;;9.30;3.40;;;;;;;;;;4991734;28;20045;-95
2022/05/14 02:07:16;;;;;;;10.98;3.25;;;;;;;;;;4995211;28;20046;-95
2022/05/14 02:09:44;;;;;;;9.32;3.38;;;;;;;;;;4994474;28;20057;-94
2022/05/14 02:12:12;;;;;;;10.00;3.42;;;;;;;;;;5010537;28;20045;-94
2022/05/14 02:14:40;;;;;;;8.57;3.65;;;;;;;;;;4995050;28;20046;-93
2022/05/14 02:17:08;;;;;;;11.40;3.47;;;;;;;;;;4991775;28;20054;-86
2022/05/14 02:19:36;;;;;;;9.98;3.30;;;;;;;;;;4986656;28;20565;-86
2022/05/14 02:22:05;;;;;;;12.52;3.60;;;;;;;;;;4993183;28;20064;-86
2022/05/14 02:24:39;;;;;;;7.57;3.33;;;;;;;;;;4985993;28;20459;-86
2022/05/14 02:27:06;;;;;;;9.43;3.30;;;;;;;;;;4985389;28;20140;-86
2022/05/14 02:29:53;;;;;;;14.40;3.78;;;;;;;;;;5001485;28;20061;-86
2022/05/14 02:32:24;;;;;;;9.90;3.67;;;;;;;;;;5000756;28;20065;-86
2022/05/14 02:34:53;;;;;;;12.75;4.22;;;;;;;;;;4970011;28;20069;-86
2022/05/14 02:37:23;;;;;;;10.40;3.50;;;;;;;;;;5002530;28;20112;-86
2022/05/14 02:39:50;;;;;;;8.50;3.85;;;;;;;;;;4988991;28;20043;-93
2022/05/14 02:42:18;;;;;;;13.43;4.32;;;;;;;;;;4959803;28;20061;-93
2022/05/14 02:44:46;;;;;;;10.57;3.78;;;;;;;;;;5011922;28;20056;-94
2022/05/14 02:47:14;;;;;;;9.25;3.80;;;;;;;;;;4994585;28;20054;-94
2022/05/14 02:49:42;;;;;;;11.98;4.20;;;;;;;;;;4995257;28;20054;-94
2022/05/14 02:52:11;;;;;;;10.35;4.03;;;;;;;;;;4979337;28;20049;-94
2022/05/14 02:54:38;;;;;;;12.20;3.90;;;;;;;;;;5004748;28;20116;-94
2022/05/14 02:57:06;;;;;;;7.65;3.45;;;;;;;;;;5010963;28;20205;-94
2022/05/14 02:59:34;;;;;;;13.00;3.75;;;;;;;;;;5010612;28;20052;-94
2022/05/14 03:02:03;;;;;;;12.52;4.35;;;;;;;;;;5011047;28;20054;-94
2022/05/14 03:04:37;;;;;;;11.48;3.92;;;;;;;;;;4992024;28;20108;-94
2022/05/14 03:07:08;;;;;;;12.75;3.80;;;;;;;;;;5001188;28;20053;-94
2022/05/14 03:09:37;;;;;;;11.90;3.60;;;;;;;;;;4994129;28;20050;-94
2022/05/14 03:12:07;;;;;;;12.07;4.15;;;;;;;;;;4994319;28;20133;-93
2022/05/14 03:14:36;;;;;;;11.30;3.88;;;;;;;;;;4993479;28;20487;-93
2022/05/14 03:17:04;;;;;;;11.30;3.72;;;;;;;;;;5010239;28;20087;-93
2022/05/14 03:19:32;;;;;;;11.10;3.53;;;;;;;;;;5010292;28;20046;-93
2022/05/14 03:22:01;;;;;;;14.40;4.35;;;;;;;;;;5009551;28;20392;-93
2022/05/14 03:24:28;;;;;;;16.02;3.63;;;;;;;;;;5011018;28;20050;-93
2022/05/14 03:26:56;;;;;;;13.82;3.97;;;;;;;;;;5010294;28;20049;-93
2022/05/14 03:29:24;;;;;;;9.70;4.03;;;;;;;;;;4990435;28;20050;-94
2022/05/14 03:31:52;;;;;;;13.25;4.22;;;;;;;;;;4992829;28;20054;-94
2022/05/14 03:34:20;;;;;;;12.13;3.63;;;;;;;;;;4993365;28;20084;-94
2022/05/14 03:36:48;;;;;;;14.85;4.50;;;;;;;;;;4993138;28;20137;-94
2022/05/14 03:39:16;;;;;;;8.80;3.75;;;;;;;;;;5010980;28;20518;-93
2022/05/14 03:41:45;;;;;;;11.07;3.97;;;;;;;;;;4993276;28;20537;-93
2022/05/14 03:44:14;;;;;;;12.90;4.43;;;;;;;;;;5011929;28;20141;-93
2022/05/14 03:46:42;;;;;;;15.57;4.20;;;;;;;;;;4996842;28;20053;-95
2022/05/14 03:49:10;;;;;;;13.90;4.22;;;;;;;;;;5015485;28;20068;-94
2022/05/14 03:51:38;;;;;;;9.15;3.65;;;;;;;;;;5015967;28;20100;-94
2022/05/14 03:54:06;;;;;;;16.02;4.22;;;;;;;;;;4998017;28;20042;-94
2022/05/14 03:56:34;;;;;;;10.13;3.88;;;;;;;;;;4997148;28;20054;-94
2022/05/14 03:59:03;;;;;;;13.13;4.00;;;;;;;;;;4982015;28;20058;-94
2022/05/14 04:01:33;;;;;;;13.27;4.20;;;;;;;;;;4998454;28;20065;-94
2022/05/14 04:04:00;;;;;;;13.00;4.85;;;;;;;;;;5008363;28;20050;-95
2022/05/14 04:06:28;;;;;;;9.38;3.92;;;;;;;;;;5013306;28;20404;-94
2022/05/14 04:08:56;;;;;;;12.05;4.05;;;;;;;;;;5011240;28;20038;-94
2022/05/14 04:11:24;;;;;;;10.25;4.18;;;;;;;;;;4991611;28;20060;-95
2022/05/14 04:13:52;;;;;;;18.65;4.43;;;;;;;;;;5009755;28;20566;-94
2022/05/14 04:16:20;;;;;;;7.75;3.85;;;;;;;;;;4996806;28;20084;-94
2022/05/14 04:18:48;;;;;;;10.80;4.07;;;;;;;;;;5007840;28;20077;-86
2022/05/14 04:21:16;;;;;;;11.40;3.90;;;;;;;;;;4980901;28;20053;-86
2022/05/14 04:23:44;;;;;;;12.25;3.95;;;;;;;;;;5006135;28;20065;-86
2022/05/14 04:26:12;;;;;;;11.77;3.97;;;;;;;;;;5004052;28;20049;-86
2022/05/14 04:28:40;;;;;;;10.38;4.13;;;;;;;;;;4997133;28;20064;-86
2022/05/14 04:31:08;;;;;;;15.50;4.18;;;;;;;;;;4980228;28;20092;-86
2022/05/14 04:33:36;;;;;;;10.50;4.00;;;;;;;;;;4988435;28;20057;-86
2022/05/14 04:36:04;;;;;;;19.65;5.70;;;;;;;;;;5012345;28;20081;-94
2022/05/14 04:38:32;;;;;;;12.23;4.10;;;;;;;;;;5008799;28;20057;-93
2022/05/14 04:41:00;;;;;;;14.05;4.80;;;;;;;;;;4996049;28;20054;-93
2022/05/14 04:43:28;;;;;;;14.98;4.50;;;;;;;;;;5014386;28;20137;-93
2022/05/14 04:45:56;;;;;;;12.48;4.30;;;;;;;;;;5012250;28;20050;-94
2022/05/14 04:48:24;;;;;;;10.73;4.13;;;;;;;;;;5001482;28;20061;-93
2022/05/14 04:50:54;;;;;;;16.65;4.50;;;;;;;;;;4994451;28;20123;-93
2022/05/14 04:53:22;;;;;;;13.65;3.88;;;;;;;;;;4996823;28;20110;-93
2022/05/14 04:55:50;;;;;;;15.63;4.72;;;;;;;;;;5010691;28;20380;-93
2022/05/14 04:58:18;;;;;;;13.85;4.80;;;;;;;;;;4995570;28;20049;-93
2022/05/14 05:00:46;;;;;;;14.65;4.70;;;;;;;;;;5012700;28;20116;-93
2022/05/14 05:03:17;;;;;;;13.40;4.57;;;;;;;;;;5013164;28;20077;-93
2022/05/14 05:05:52;;;;;;;13.88;5.43;;;;;;;;;;5011361;28;20096;-93
2022/05/14 05:08:21;;;;;;;15.65;4.80;;;;;;;;;;4994958;28;20212;-93
2022/05/14 05:10:48;;;;;;;11.93;4.22;;;;;;;;;;4994626;28;20054;-93
2022/05/14 05:13:19;;;;;;;15.45;4.55;;;;;;;;;;4996227;28;20075;-93
2022/05/14 05:15:48;;;;;;;14.27;4.13;;;;;;;;;;5003243;28;20757;-93
2022/05/14 05:18:17;;;;;;;11.23;4.07;;;;;;;;;;5009456;28;20542;-86
2022/05/14 05:20:46;;;;;;;19.33;4.78;;;;;;;;;;5003720;28;20061;-86
2022/05/14 05:23:17;;;;;;;9.65;3.85;;;;;;;;;;5004234;28;20052;-86
2022/05/14 05:25:46;;;;;;;16.52;4.55;;;;;;;;;;5001511;28;20053;-86
2022/05/14 05:28:14;;;;;;;17.50;4.20;;;;;;;;;;5003375;28;20057;-86
2022/05/14 05:30:42;;;;;;;14.27;4.35;;;;;;;;;;5002110;28;20100;-86
2022/05/14 05:33:12;;;;;;;16.10;4.05;;;;;;;;;;5002708;28;20817;-86
2022/05/14 05:35:41;;;;;;;15.13;4.72;;;;;;;;;;5003588;28;20053;-86
2022/05/14 05:38:08;;;;;;;16.30;4.40;;;;;;;;;;4986497;28;20116;-86
2022/05/14 05:40:36;;;;;;;18.38;4.40;;;;;;;;;;5003484;28;20732;-86
2022/05/14 05:43:05;;;;;;;13.00;4.60;;;;;;;;;;5001798;28;20747;-87
2022/05/14 05:45:35;;;;;;;20.35;5.22;;;;;;;;;;5003186;28;20099;-86
2022/05/14 05:48:02;;;;;;;15.73;4.57;;;;;;;;;;5001324;28;20061;-86
2022/05/14 05:50:30;;;;;;;15.13;3.95;;;;;;;;;;5003057;28;20135;-86
2022/05/14 05:52:58;;;;;;;17.55;4.32;;;;;;;;;;4978925;28;20104;-86
2022/05/14 05:58:12;;;;;;;13.38;4.05;;;;;;;;;;5003436;28;20049;-86
2022/05/14 06:00:40;;;;;;;18.27;4.60;;;;;;;;;;5001742;28;20050;-87
2022/05/14 06:03:08;;;;;;;14.20;5.15;;;;;;;;;;5001527;28;20145;-86
2022/05/14 06:05:41;;;;;;;16.15;5.72;;;;;;;;;;5004187;28;20133;-86
2022/05/14 06:08:10;;;;;;;15.23;4.47;;;;;;;;;;5004616;28;20055;-91
2022/05/14 06:10:38;;;;;;;14.88;4.70;;;;;;;;;;5010523;28;20036;-91
2022/05/14 06:13:08;;;;;;;14.13;4.63;;;;;;;;;;5008899;28;20042;-91
2022/05/14 06:15:37;;;;;;;18.58;5.53;;;;;;;;;;5010701;28;20074;-91
2022/05/14 06:18:04;;;;;;;19.25;4.82;;;;;;;;;;5009269;28;20084;-91
2022/05/14 06:20:32;;;;;;;19.10;4.80;;;;;;;;;;5008730;28;20050;-92
2022/05/14 06:23:02;;;;;;;16.30;3.75;;;;;;;;;;5010905;28;20160;-92
2022/05/14 06:25:30;;;;;;;11.52;3.85;;;;;;;;;;5009485;28;20531;-90
2022/05/14 06:27:58;;;;;;;15.88;3.95;;;;;;;;;;5009686;28;20068;-91
2022/05/14 06:30:26;;;;;;;15.02;4.15;;;;;;;;;;5008773;28;20078;-92
2022/05/14 06:32:54;;;;;;;17.52;4.38;;;;;;;;;;5008959;28;20069;-92
2022/05/14 06:35:22;;;;;;;15.27;4.65;;;;;;;;;;4987299;28;20864;-91
2022/05/14 06:37:50;;;;;;;18.48;4.93;;;;;;;;;;5008688;28;20045;-91
2022/05/14 06:40:18;;;;;;;18.38;5.53;;;;;;;;;;5007753;28;20084;-90
2022/05/14 06:42:46;;;;;;;14.30;4.55;;;;;;;;;;4992202;28;20058;-89
2022/05/14 06:45:14;;;;;;;21.45;4.28;;;;;;;;;;5005958;28;20116;-88
2022/05/14 06:47:42;;;;;;;19.20;4.47;;;;;;;;;;5008273;28;20157;-90
2022/05/14 06:50:10;;;;;;;14.38;4.25;;;;;;;;;;5010508;28;20050;-92
2022/05/14 06:52:42;;;;;;;15.07;4.43;;;;;;;;;;5010273;28;20511;-91
2022/05/14 06:55:12;;;;;;;14.27;4.22;;;;;;;;;;5009761;28;20220;-92
2022/05/14 06:57:41;;;;;;;12.38;4.05;;;;;;;;;;5008848;28;20512;-91
2022/05/14 07:00:09;;;;;;;18.77;4.35;;;;;;;;;;5008380;28;20073;-91
2022/05/14 07:02:36;;;;;;;15.30;4.55;;;;;;;;;;5008284;28;20046;-90
2022/05/14 07:07:52;;;;;;;18.83;4.43;;;;;;;;;;5008236;28;20157;-90
2022/05/14 07:10:20;;;;;;;12.90;3.80;;;;;;;;;;5008130;28;20066;-89
2022/05/14 07:12:49;;;;;;;17.50;4.10;;;;;;;;;;5006448;28;20499;-90
2022/05/14 07:15:18;;;;;;;18.45;3.97;;;;;;;;;;5008863;28;20068;-90
2022/05/14 07:17:46;;;;;;;14.25;4.13;;;;;;;;;;5012156;28;20227;-89
2022/05/14 07:20:14;;;;;;;19.15;4.22;;;;;;;;;;5012133;28;20053;-90
2022/05/14 07:22:42;;;;;;;18.63;3.97;;;;;;;;;;5011988;28;20056;-90
2022/05/14 07:25:14;;;;;;;15.07;4.10;;;;;;;;;;5011753;28;20125;-89
2022/05/14 07:27:42;;;;;;;15.00;3.72;;;;;;;;;;5007425;28;20049;-86
2022/05/14 07:30:10;;;;;;;18.58;3.88;;;;;;;;;;5011917;28;20057;-91
2022/05/14 07:32:38;;;;;;;15.48;3.35;;;;;;;;;;4992380;28;20535;-85
2022/05/14 07:35:06;;;;;;;15.75;4.13;;;;;;;;;;5012315;28;20104;-90
2022/05/14 07:37:45;;;;;;;21.33;4.53;;;;;;;;;;4978222;28;20057;-90
2022/05/14 07:40:17;;;;;;;15.50;3.28;;;;;;;;;;5013609;28;20128;-89
2022/05/14 07:43:00;;;;;;;15.55;3.30;;;;;;;;;;5013755;28;20136;-89
2022/05/14 07:45:33;;;;;;;13.93;3.58;;;;;;;;;;5015032;28;20084;-90
2022/05/14 07:48:04;;;;;;;15.60;3.50;;;;;;;;;;5013114;28;20054;-86
2022/05/14 07:50:32;;;;;;;11.25;3.50;;;;;;;;;;5011627;28;20065;-86
2022/05/14 07:53:00;;;;;;;12.02;3.40;;;;;;;;;;5009346;28;20081;-89
2022/05/14 07:55:28;;;;;;;13.43;3.55;;;;;;;;;;5011717;28;20074;-88
2022/05/14 07:58:03;;;;;;;13.63;3.42;;;;;;;;;;5008840;28;20066;-89
2022/05/14 08:00:32;;;;;;;13.00;3.03;;;;;;;;;;5010638;28;20065;-90
2022/05/14 08:03:01;;;;;;;16.58;3.00;;;;;;;;;;5011305;28;20053;-87
2022/05/14 08:05:30;;;;;;;11.80;3.30;;;;;;;;;;5010227;28;20053;-92
2022/05/14 08:07:58;;;;;;;11.45;2.90;;;;;;;;;;5008191;28;20503;-91
2022/05/14 08:10:28;;;;;;;13.90;3.28;;;;;;;;;;4996116;28;20050;-91
2022/05/14 08:12:56;;;;;;;14.60;2.50;;;;;;;;;;5012771;28;20042;-90
2022/05/14 08:15:26;;;;;;;10.30;2.92;;;;;;;;;;4997761;28;20132;-90
2022/05/14 08:17:54;;;;;;;14.90;3.42;;;;;;;;;;4988488;28;20100;-90
2022/05/14 08:20:23;;;;;;;11.68;2.53;;;;;;;;;;5012651;28;20054;-91
2022/05/14 08:25:36;;;;;;;14.48;3.55;;;;;;;;;;5011954;28;20515;-90
2022/05/14 08:28:04;;;;;;;9.65;3.05;;;;;;;;;;4993341;28;20065;-91
2022/05/14 08:30:33;;;;;;;9.95;3.38;;;;;;;;;;5010911;28;20042;-90
2022/05/14 08:33:04;;;;;;;9.50;3.10;;;;;;;;;;5012248;28;20057;-90
2022/05/14 08:35:32;;;;;;;11.70;2.83;;;;;;;;;;5010360;28;21306;-87
2022/05/14 08:38:00;;;;;;;12.68;3.03;;;;;;;;;;5011291;28;20073;-91
2022/05/14 08:40:30;;;;;;;9.90;2.42;;;;;;;;;;5013074;28;20054;-91
2022/05/14 08:43:01;;;;;;;19.52;3.20;;;;;;;;;;4995152;28;20061;-91
2022/05/14 08:45:34;;;;;;;16.63;2.90;;;;;;;;;;4975601;28;20490;-90
2022/05/14 08:48:10;;;;;;;9.38;2.70;;;;;;;;;;5004617;28;20046;-91
2022/05/14 08:50:39;;;;;;;10.35;2.45;;;;;;;;;;5004899;28;20136;-91
2022/05/14 08:53:10;;;;;;;12.00;2.53;;;;;;;;;;5012188;28;21039;-91
2022/05/14 08:55:52;;;;;;;10.23;2.90;;;;;;;;;;5012481;28;20052;-91
2022/05/14 08:58:43;;;;;;;14.23;2.72;;;;;;;;;;5003444;28;20140;-91
2022/05/14 09:01:14;;;;;;;8.20;2.20;;;;;;;;;;5011943;28;20137;-91
2022/05/14 09:03:44;;;;;;;9.90;2.35;;;;;;;;;;4998308;28;20057;-91
2022/05/14 09:06:12;;;;;;;9.93;2.58;;;;;;;;;;4995618;28;20140;-90
2022/05/14 09:08:40;;;;;;;7.45;2.42;;;;;;;;;;5005789;28;20503;-91
2022/05/14 09:11:23;;;;;;;13.52;2.60;;;;;;;;;;5011580;28;20053;-91
2022/05/14 09:13:56;;;;;;;12.82;2.65;;;;;;;;;;5010313;28;20054;-91
2022/05/14 09:16:31;;;;;;;9.43;2.53;;;;;;;;;;5010694;28;20049;-91
2022/05/14 09:19:00;;;;;;;9.38;2.25;;;;;;;;;;4995007;28;20104;-91
2022/05/14 09:21:32;;;;;;;11.32;2.35;;;;;;;;;;4993855;28;20935;-91
2022/05/14 09:24:28;;;;;;;10.30;3.00;;;;;;;;;;5011022;28;20073;-91
2022/05/14 09:27:07;;;;;;;;;;;;;;;;;;5013106;28;20898;-91
2022/05/14 09:29:41;;;;;;;11.15;2.30;;;;;;;;;;4978661;28;20743;-91
2022/05/14 09:32:17;;;;;;;8.27;2.35;;;;;;;;;;4992984;28;21022;-91
2022/05/14 09:34:44;;;;;;;8.95;2.08;;;;;;;;;;5009850;28;20136;-90
2022/05/14 09:37:32;;;;;;;5.97;2.30;;;;;;;;;;5010917;28;20999;-91
2022/05/14 09:40:08;;;;;;;9.68;2.40;;;;;;;;;;5011930;28;20054;-91
2022/05/14 09:42:39;;;;;;;9.82;2.33;;;;;;;;;;4989542;28;20049;-91
2022/05/14 09:45:37;;;;;;;5.13;2.05;;;;;;;;;;4987263;28;20080;-91
2022/05/14 09:48:19;;;;;;;10.75;2.40;;;;;;;;;;5009324;28;20089;-91
2022/05/14 09:50:56;;;;;;;7.32;2.00;;;;;;;;;;4992802;28;20074;-91
2022/05/14 09:53:30;;;;;;;10.38;2.33;;;;;;;;;;5004911;28;20069;-90
2022/05/14 09:56:32;;;;;;;12.35;2.75;;;;;;;;;;5011040;28;20050;-90
2022/05/14 09:59:12;;;;;;;11.68;2.92;;;;;;;;;;4987431;28;20412;-90
2022/05/14 10:01:45;;;;;;;11.80;2.38;;;;;;;;;;5009291;28;20045;-91
2022/05/14 10:04:51;;;;;;;11.90;2.33;;;;;;;;;;5010425;28;20061;-92
2022/05/14 10:07:31;;;;;;;8.63;2.88;;;;;;;;;;4987996;28;20042;-92
2022/05/14 10:10:28;;;;;;;11.27;2.30;;;;;;;;;;5003792;28;20128;-91
2022/05/14 10:13:09;;;;;;;9.50;1.95;;;;;;;;;;5004878;28;20387;-92
2022/05/14 10:16:03;;;;;;;11.75;2.75;;;;;;;;;;4992517;28;20415;-91
2022/05/14 10:18:59;;;;;;;12.88;2.83;;;;;;;;;;5012715;28;20057;-91
2022/05/14 10:21:37;;;;;;;;;;;;;;;;;;5007117;28;21073;-92
2022/05/14 10:27:49;;;;;;;8.45;2.20;;;;;;;;;;5008215;28;20053;-87
2022/05/14 10:30:25;;;;;;;9.05;2.35;;;;;;;;;;5008871;28;20053;-87
2022/05/14 10:33:22;;;;;;;10.07;2.17;;;;;;;;;;5006995;28;20208;-86
2022/05/14 10:36:11;;;;;;;;;;;;;;;;;;5005133;28;20064;-86
2022/05/14 10:38:50;;;;;;;10.82;3.03;;;;;;;;;;5006480;28;20311;-86
2022/05/14 10:41:33;;;;;;;10.77;2.47;;;;;;;;;;5006862;28;20492;-86
2022/05/14 10:44:08;;;;;;;8.02;1.90;;;;;;;;;;5007816;28;20057;-88
2022/05/14 10:46:40;;;;;;;11.98;2.97;;;;;;;;;;5009155;28;20037;-92
2022/05/14 10:49:15;;;;;;;17.73;3.28;;;;;;;;;;4992261;28;20049;-91
2022/05/14 10:51:51;;;;;;;9.95;2.85;;;;;;;;;;5008230;28;20128;-91
2022/05/14 10:54:26;;;;;;;11.27;2.55;;;;;;;;;;5014248;28;20049;-91
2022/05/14 10:56:58;;;;;;;12.73;2.30;;;;;;;;;;5011974;28;20058;-92
2022/05/14 10:59:50;;;;;;;14.68;2.97;;;;;;;;;;4994799;28;20070;-91
2022/05/14 11:02:28;;;;;;;15.95;2.92;;;;;;;;;;5012303;28;20050;-92
2022/05/14 11:04:56;;;;;;;11.70;2.42;;;;;;;;;;4981712;28;20061;-92
2022/05/14 11:07:37;;;;;;;12.93;2.65;;;;;;;;;;4981160;28;20133;-92
2022/05/14 11:10:34;;;;;;;10.07;2.25;;;;;;;;;;5013262;28;20064;-92
2022/05/14 11:13:12;;;;;;;9.48;2.15;;;;;;;;;;5013731;28;20041;-92
2022/05/14 11:15:42;;;;;;;8.63;2.30;;;;;;;;;;5009594;28;20123;-91
2022/05/14 11:18:15;;;;;;;8.70;2.15;;;;;;;;;;5006015;28;20052;-92
2022/05/14 11:21:04;;;;;;;11.43;2.10;;;;;;;;;;5013241;28;20144;-92
2022/05/14 11:23:32;;;;;;;8.20;2.28;;;;;;;;;;5013935;28;20530;-92
2022/05/14 11:26:10;;;;;;;12.80;2.55;;;;;;;;;;5010636;28;20076;-92
2022/05/14 11:28:38;;;;;;;12.30;2.00;;;;;;;;;;5015226;28;20116;-92
2022/05/14 11:31:25;;;;;;;10.25;2.28;;;;;;;;;;5013645;28;20049;-92
2022/05/14 11:33:57;;;;;;;8.23;2.10;;;;;;;;;;5012809;28;20520;-92
2022/05/14 11:36:28;;;;;;;11.85;2.45;;;;;;;;;;5012993;28;20076;-92
2022/05/14 11:39:20;;;;;;;7.22;2.10;;;;;;;;;;5012475;28;20119;-91
2022/05/14 11:41:54;;;;;;;9.68;2.67;;;;;;;;;;5005566;28;20046;-91
2022/05/14 11:44:38;;;;;;;12.13;2.88;;;;;;;;;;4996430;28;20156;-91
2022/05/14 11:47:28;;;;;;;12.48;2.17;;;;;;;;;;5006792;28;20054;-91
2022/05/14 11:49:59;;;;;;;8.85;2.08;;;;;;;;;;5009227;28;20041;-91
2022/05/14 11:52:47;;;;;;;9.30;2.03;;;;;;;;;;5014357;28;20070;-91
2022/05/14 11:55:21;;;;;;;12.70;2.58;;;;;;;;;;4963052;28;20050;-90
2022/05/14 11:57:58;;;;;;;9.82;2.30;;;;;;;;;;5011816;28;20061;-89
2022/05/14 12:00:30;;;;;;;11.88;2.25;;;;;;;;;;5012657;28;20054;-89
2022/05/14 12:03:16;;;;;;;9.98;2.13;;;;;;;;;;5011668;28;20377;-89
2022/05/14 12:05:56;;;;;;;11.52;2.47;;;;;;;;;;5002934;28;20962;-89
2022/05/14 12:08:52;;;;;;;10.18;2.65;;;;;;;;;;5012570;28;20045;-90
2022/05/14 12:11:41;;;;;;;;;;;;;;;;;;5010832;28;20046;-89
2022/05/14 12:14:17;;;;;;;11.13;2.70;;;;;;;;;;5013163;28;19983;-88
2022/05/14 12:16:50;;;;;;;11.32;1.85;;;;;;;;;;5008311;28;20169;-87
2022/05/14 12:19:21;;;;;;;9.30;2.10;;;;;;;;;;5010525;28;20045;-90
2022/05/14 12:22:11;;;;;;;9.45;2.80;;;;;;;;;;5012767;28;20521;-90
2022/05/14 12:24:52;;;;;;;11.32;2.58;;;;;;;;;;5003610;28;20128;-91
2022/05/14 12:27:20;;;;;;;12.55;2.67;;;;;;;;;;5009486;28;20533;-88
2022/05/14 12:30:05;;;;;;;7.90;1.80;;;;;;;;;;5010042;28;20053;-88
2022/05/14 12:35:34;;;;;;;7.50;1.80;;;;;;;;;;5009672;28;20057;-89
2022/05/14 12:38:05;;;;;;;6.82;1.88;;;;;;;;;;5009092;28;20046;-88
2022/05/14 12:40:37;;;;;;;7.55;1.92;;;;;;;;;;5009586;28;20049;-89
2022/05/14 12:43:07;;;;;;;9.32;2.22;;;;;;;;;;5008570;28;20065;-88
2022/05/14 12:45:42;;;;;;;6.95;1.70;;;;;;;;;;5007082;28;20610;-88
2022/05/14 12:48:12;;;;;;;9.02;1.95;;;;;;;;;;5006593;28;20176;-89
2022/05/14 12:50:52;;;;;;;7.30;2.08;;;;;;;;;;5011576;28;20053;-89
2022/05/14 12:53:20;;;;;;;5.70;1.50;;;;;;;;;;5010534;28;20423;-89
2022/05/14 12:55:51;;;;;;;11.40;2.53;;;;;;;;;;5009866;28;20046;-89
2022/05/14 12:58:20;;;;;;;5.80;1.77;;;;;;;;;;5011675;28;20054;-89
2022/05/14 13:00:51;;;;;;;6.18;1.70;;;;;;;;;;5008218;28;20348;-87
2022/05/14 13:03:39;;;;;;;7.15;1.70;;;;;;;;;;5008421;28;20056;-88
2022/05/14 13:06:28;;;;;;;8.13;1.85;;;;;;;;;;5010777;28;20060;-88
2022/05/14 13:08:59;;;;;;;9.95;2.00;;;;;;;;;;5007666;28;20053;-88
2022/05/14 13:11:30;;;;;;;8.25;1.63;;;;;;;;;;5007720;28;20057;-88
2022/05/14 13:14:10;;;;;;;9.20;1.98;;;;;;;;;;5000347;28;20073;-87
2022/05/14 13:16:38;;;;;;;12.40;2.40;;;;;;;;;;5007093;28;20112;-88
2022/05/14 13:19:21;;;;;;;5.30;1.52;;;;;;;;;;5008639;28;20129;-89
2022/05/14 13:21:52;;;;;;;9.18;1.80;;;;;;;;;;5009232;28;20137;-89
2022/05/14 13:24:27;;;;;;;7.88;1.80;;;;;;;;;;5011175;28;20892;-89
2022/05/14 13:26:57;;;;;;;8.57;1.85;;;;;;;;;;5009521;28;20081;-89
2022/05/14 13:29:33;;;;;;;12.73;2.45;;;;;;;;;;5006340;28;20252;-89
2022/05/14 13:32:27;;;;;;;8.45;1.70;;;;;;;;;;5010158;28;20691;-89
2022/05/14 13:37:50;;;;;;;;;;;;;;;;;;5011241;28;20865;-89
2022/05/14 13:40:32;;;;;;;5.30;1.60;;;;;;;;;;5010008;28;20020;-89
2022/05/14 13:43:21;;;;;;;6.28;1.83;;;;;;;;;;5008560;28;20116;-89
2022/05/14 13:45:57;;;;;;;5.57;1.67;;;;;;;;;;5007468;28;20042;-89
2022/05/14 13:48:35;;;;;;;7.82;1.73;;;;;;;;;;5010384;28;20046;-90
2022/05/14 13:51:25;;;;;;;11.75;2.55;;;;;;;;;;5008912;28;20108;-90
2022/05/14 13:54:15;;;;;;;11.60;2.08;;;;;;;;;;5010621;28;20491;-90
2022/05/14 13:56:45;;;;;;;8.10;2.00;;;;;;;;;;5007890;28;20064;-89
2022/05/14 13:59:24;;;;;;;8.55;1.52;;;;;;;;;;5008035;28;20957;-90
2022/05/14 14:01:55;;;;;;;8.90;2.00;;;;;;;;;;5007308;28;20042;-89
2022/05/14 14:04:31;;;;;;;5.88;1.58;;;;;;;;;;5009409;28;20081;-91
2022/05/14 14:07:00;;;;;;;7.78;1.48;;;;;;;;;;5004662;28;20068;-90
2022/05/14 14:09:29;;;;;;;7.80;1.50;;;;;;;;;;5011012;28;20562;-91
2022/05/14 14:11:56;;;;;;;10.52;1.42;;;;;;;;;;5009782;28;20120;-91
2022/05/14 14:14:25;;;;;;;9.10;2.10;;;;;;;;;;4986486;28;20062;-90
2022/05/14 14:16:52;;;;;;;7.28;1.60;;;;;;;;;;5009805;28;20133;-90
2022/05/14 14:19:20;;;;;;;8.32;1.90;;;;;;;;;;5009878;28;20046;-90
2022/05/14 14:21:48;;;;;;;5.90;1.42;;;;;;;;;;5010311;28;20050;-89
2022/05/14 14:24:18;;;;;;;4.75;1.40;;;;;;;;;;5007997;28;20038;-91
2022/05/14 14:26:47;;;;;;;5.25;1.58;;;;;;;;;;5008200;28;20092;-91
2022/05/14 14:29:16;;;;;;;7.95;1.50;;;;;;;;;;5010964;28;20061;-91
2022/05/14 14:31:44;;;;;;;7.90;1.70;;;;;;;;;;4995300;28;20050;-91
2022/05/14 14:34:12;;;;;;;7.63;1.63;;;;;;;;;;5007438;28;20496;-89
2022/05/14 14:36:40;;;;;;;6.47;1.70;;;;;;;;;;5007244;28;20089;-89
2022/05/14 14:39:08;;;;;;;7.07;1.52;;;;;;;;;;5006975;28;20060;-92
2022/05/14 14:41:36;;;;;;;9.07;2.35;;;;;;;;;;5010876;28;20042;-92
2022/05/14 14:44:05;;;;;;;10.50;2.45;;;;;;;;;;4993695;28;20156;-91
2022/05/14 14:46:33;;;;;;;9.23;2.88;;;;;;;;;;4993147;28;20052;-91
2022/05/14 14:49:03;;;;;;;9.85;2.70;;;;;;;;;;5008801;28;20129;-91
2022/05/14 14:51:30;;;;;;;5.15;2.03;;;;;;;;;;5009484;28;20049;-90
2022/05/14 14:53:58;;;;;;;6.25;1.55;;;;;;;;;;5008604;28;20053;-89
2022/05/14 14:56:26;;;;;;;6.65;1.67;;;;;;;;;;5008274;28;20054;-89
2022/05/14 14:58:55;;;;;;;6.28;2.22;;;;;;;;;;5008638;28;20061;-90
2022/05/14 15:01:33;;;;;;;4.82;1.63;;;;;;;;;;5009141;28;20045;-89
2022/05/14 15:04:11;;;;;;;7.60;1.75;;;;;;;;;;5010545;28;20053;-90
2022/05/14 15:06:38;;;;;;;6.57;2.00;;;;;;;;;;4986078;28;20050;-89
2022/05/14 15:09:06;;;;;;;7.43;1.83;;;;;;;;;;4992715;28;20499;-89
2022/05/14 15:11:37;;;;;;;7.70;1.70;;;;;;;;;;5010658;28;20045;-90
2022/05/14 15:14:13;;;;;;;8.20;2.00;;;;;;;;;;5010595;28;20157;-90
2022/05/14 15:16:44;;;;;;;7.15;2.25;;;;;;;;;;5000797;28;20062;-90
2022/05/14 15:19:12;;;;;;;10.13;2.70;;;;;;;;;;5009970;28;20045;-90
2022/05/14 15:21:40;;;;;;;9.63;2.20;;;;;;;;;;5008284;28;20100;-90
2022/05/14 15:24:08;;;;;;;8.10;2.42;;;;;;;;;;5006843;28;20052;-90
2022/05/14 15:26:36;;;;;;;6.60;2.03;;;;;;;;;;5007335;28;20149;-90
2022/05/14 15:29:04;;;;;;;9.52;1.90;;;;;;;;;;5012120;28;20895;-90